createdAt,value
2023-02-14T00:00:11.610Z,22.60
2023-02-14T00:05:13.730Z,23.33
2023-02-14T00:10:16.339Z,21.83
2023-02-14T00:15:25.219Z,22.00
2023-02-14T00:20:28.537Z,22.85
2023-02-14T00:25:30.679Z,20.53
2023-02-14T00:30:32.947Z,21.50
2023-02-14T00:35:38.284Z,23.00
2023-02-14T00:40:40.413Z,25.12
2023-02-14T00:45:42.559Z,23.30
2023-02-14T00:50:46.297Z,24.90
2023-02-14T00:55:48.428Z,24.50
2023-02-14T01:00:50.652Z,24.60
2023-02-14T01:05:52.946Z,23.77
2023-02-14T01:10:55.041Z,26.17
2023-02-14T01:15:57.211Z,24.73
2023-02-14T01:21:13.716Z,24.50
2023-02-14T01:26:18.397Z,25.33
2023-02-14T01:31:29.233Z,23.48
2023-02-14T01:36:39.735Z,27.40
2023-02-14T01:41:44.273Z,25.20
2023-02-14T01:46:46.572Z,28.38
2023-02-14T01:51:59.515Z,28.67
2023-02-14T01:57:06.757Z,26.27
2023-02-14T02:02:10.169Z,24.70
2023-02-14T02:07:20.881Z,26.77
2023-02-14T02:12:23.127Z,23.83
2023-02-14T02:17:43.680Z,22.15
2023-02-14T02:23:19.705Z,24.42
2023-02-14T02:28:24.839Z,24.80
2023-02-14T02:33:29.867Z,24.70
2023-02-14T02:38:55.166Z,25.50
2023-02-14T02:44:12.300Z,26.12
2023-02-14T02:49:14.413Z,23.98
2023-02-14T02:54:31.338Z,26.15
2023-02-14T02:59:39.347Z,26.67
2023-02-14T03:04:54.216Z,27.23
2023-02-14T03:09:59.489Z,25.83
2023-02-14T03:15:22.528Z,25.65
2023-02-14T03:20:46.744Z,25.42
2023-02-14T03:26:13.825Z,22.03
2023-02-14T03:31:53.836Z,27.30
2023-02-14T03:37:13.977Z,26.17
2023-02-14T03:42:24.881Z,20.85
2023-02-14T03:47:31.858Z,24.80
2023-02-14T03:52:36.252Z,23.60
2023-02-14T03:57:42.011Z,22.98
2023-02-14T04:02:53.280Z,27.40
2023-02-14T04:07:58.216Z,22.67
2023-02-14T04:13:00.320Z,28.42
2023-02-14T04:18:21.334Z,23.70
2023-02-14T04:23:25.842Z,28.12
2023-02-14T04:28:27.932Z,25.25
2023-02-14T04:33:30.235Z,35.45
2023-02-14T04:38:33.093Z,26.95
2023-02-14T04:43:35.196Z,24.53
2023-02-14T04:48:37.313Z,23.17
2023-02-14T04:53:40.500Z,25.90
2023-02-14T04:58:42.655Z,26.90
2023-02-14T05:03:44.847Z,26.05
2023-02-14T05:08:46.934Z,27.50
2023-02-14T05:13:49.384Z,25.08
2023-02-14T05:18:51.665Z,28.65
2023-02-14T05:23:53.826Z,28.92
2023-02-14T05:28:56.369Z,23.77
2023-02-14T05:33:58.679Z,28.83
2023-02-14T05:39:00.789Z,26.60
2023-02-14T05:44:04.045Z,27.97
2023-02-14T05:49:06.231Z,32.30
2023-02-14T05:54:10.598Z,30.37
2023-02-14T05:59:14.606Z,30.60
2023-02-14T06:04:16.776Z,36.80
2023-02-14T06:09:19.910Z,30.60
2023-02-14T06:14:22.192Z,32.40
2023-02-14T06:19:24.262Z,35.25
2023-02-14T06:24:26.417Z,46.13
2023-02-14T06:29:28.704Z,40.92
2023-02-14T06:34:30.953Z,38.27
2023-02-14T06:39:33.440Z,40.00
2023-02-14T06:44:35.678Z,44.10
2023-02-14T06:49:37.792Z,52.47
2023-02-14T06:54:39.899Z,61.45
2023-02-14T06:59:41.965Z,55.97
2023-02-14T07:04:44.125Z,56.92
2023-02-14T07:09:46.792Z,58.70
2023-02-14T07:14:48.897Z,53.85
2023-02-14T07:19:51.016Z,48.42
2023-02-14T07:24:53.104Z,46.60
2023-02-14T07:29:55.257Z,44.90
2023-02-14T07:34:57.424Z,42.97
2023-02-14T07:39:59.794Z,36.33
2023-02-14T07:45:20.786Z,36.95
2023-02-14T07:50:24.055Z,33.13
2023-02-14T07:55:26.223Z,33.45
2023-02-14T08:00:28.396Z,37.28
2023-02-14T08:05:30.497Z,30.33
2023-02-14T08:10:33.252Z,28.77
2023-02-14T08:15:54.310Z,28.30
2023-02-14T08:20:56.691Z,28.50
2023-02-14T08:25:58.925Z,27.65
2023-02-14T08:31:03.363Z,25.00
2023-02-14T08:36:06.104Z,24.80
2023-02-14T08:41:09.302Z,25.50
2023-02-14T08:46:12.616Z,28.10
2023-02-14T08:51:15.044Z,27.60
2023-02-14T08:56:17.930Z,33.47
2023-02-14T09:01:20.282Z,30.55
2023-02-14T09:06:22.576Z,31.30
2023-02-14T09:11:25.657Z,30.40
2023-02-14T09:16:28.077Z,26.50
2023-02-14T09:21:30.594Z,28.12
2023-02-14T09:26:33.042Z,29.30
2023-02-14T09:31:35.191Z,26.67
2023-02-14T09:36:37.387Z,24.30
2023-02-14T09:42:09.867Z,18.60
2023-02-14T09:47:37.949Z,22.17
2023-02-14T09:52:40.123Z,19.00
2023-02-14T09:58:11.043Z,18.07
2023-02-14T10:03:38.291Z,19.48
2023-02-14T10:08:54.717Z,18.25
2023-02-14T10:14:03.957Z,19.10
2023-02-14T10:19:26.400Z,21.37
2023-02-14T10:24:44.368Z,20.37
2023-02-14T10:29:46.617Z,21.98
2023-02-14T10:34:51.418Z,19.92
2023-02-14T10:39:56.419Z,18.07
2023-02-14T10:44:58.804Z,18.23
2023-02-14T10:50:37.322Z,15.93
2023-02-14T10:56:03.793Z,19.65
2023-02-14T11:01:16.146Z,18.12
2023-02-14T11:06:18.280Z,18.83
2023-02-14T11:11:32.085Z,18.65
2023-02-14T11:16:37.180Z,17.90
2023-02-14T11:21:40.529Z,16.65
2023-02-14T11:26:47.020Z,15.10
2023-02-14T11:31:49.462Z,16.20
2023-02-14T11:36:52.132Z,16.37
2023-02-14T11:42:00.926Z,14.93
2023-02-14T11:47:41.699Z,15.15
2023-02-14T11:52:52.483Z,14.30
2023-02-14T11:57:58.679Z,14.90
2023-02-14T12:03:06.424Z,15.15
2023-02-14T12:08:08.744Z,14.70
2023-02-14T12:13:10.791Z,15.85
2023-02-14T12:18:46.136Z,15.93
2023-02-14T12:24:02.776Z,15.63
2023-02-14T12:29:23.253Z,14.25
2023-02-14T12:34:25.418Z,13.67
2023-02-14T12:39:52.037Z,14.77
2023-02-14T12:45:17.639Z,15.32
2023-02-14T12:50:35.128Z,16.03
2023-02-14T12:55:52.604Z,15.93
2023-02-14T13:01:06.924Z,14.83
2023-02-14T13:06:53.592Z,13.75
2023-02-14T13:12:32.564Z,13.23
2023-02-14T13:17:52.724Z,14.77
2023-02-14T13:22:57.747Z,15.15
2023-02-14T13:28:04.133Z,13.73
2023-02-14T13:33:24.367Z,14.80
2023-02-14T13:38:28.292Z,16.98
2023-02-14T13:43:50.096Z,15.37
2023-02-14T13:49:18.392Z,15.55
2023-02-14T13:54:45.025Z,14.83
2023-02-14T13:59:47.130Z,14.05
2023-02-14T14:04:49.353Z,13.23
2023-02-14T14:09:51.400Z,14.43
2023-02-14T14:15:13.890Z,14.48
2023-02-14T14:20:15.928Z,11.97
2023-02-14T14:25:41.608Z,12.98
2023-02-14T14:30:44.909Z,12.37
2023-02-14T14:36:10.274Z,13.30
2023-02-14T14:41:12.497Z,14.65
2023-02-14T14:46:16.337Z,11.17
2023-02-14T14:51:20.154Z,13.25
2023-02-14T14:56:33.422Z,16.17
2023-02-14T15:01:40.036Z,17.67
2023-02-14T15:06:42.376Z,14.82
2023-02-14T15:12:04.823Z,19.93
2023-02-14T15:17:12.871Z,22.15
2023-02-14T15:22:29.724Z,25.70
2023-02-14T15:27:32.444Z,27.03
2023-02-14T15:32:36.659Z,26.73
2023-02-14T15:37:38.936Z,26.40
2023-02-14T15:42:43.689Z,31.83
2023-02-14T15:47:49.317Z,33.25
2023-02-14T15:52:56.797Z,29.77
2023-02-14T15:58:06.060Z,32.85
2023-02-14T16:03:12.468Z,27.23
2023-02-14T16:08:54.502Z,21.40
2023-02-14T16:13:57.186Z,25.37
2023-02-14T16:18:59.344Z,17.92
2023-02-14T16:24:07.421Z,20.35
2023-02-14T16:29:16.177Z,17.67
2023-02-14T16:34:18.529Z,21.90
2023-02-14T16:39:25.052Z,17.42
2023-02-14T16:44:27.212Z,16.85
2023-02-14T16:49:30.158Z,18.05
2023-02-14T16:54:32.467Z,17.97
2023-02-14T16:59:34.586Z,18.23
2023-02-14T17:04:36.735Z,20.60
2023-02-14T17:09:48.569Z,21.87
2023-02-14T17:14:55.756Z,22.50
2023-02-14T17:19:58.689Z,23.33
2023-02-14T17:25:01.176Z,21.45
2023-02-14T17:30:04.444Z,24.90
2023-02-14T17:35:08.974Z,24.10
2023-02-14T17:40:12.062Z,24.92
2023-02-14T17:45:14.256Z,24.03
2023-02-14T17:50:18.130Z,23.55
2023-02-14T17:55:20.937Z,26.80
2023-02-14T18:00:23.902Z,25.25
2023-02-14T18:05:26.742Z,27.85
2023-02-14T18:10:28.925Z,31.97
2023-02-14T18:15:31.003Z,28.67
2023-02-14T18:20:34.217Z,26.95
2023-02-14T18:25:37.645Z,28.12
2023-02-14T18:30:39.828Z,25.98
2023-02-14T18:35:42.056Z,26.17
2023-02-14T18:40:44.245Z,35.22
2023-02-14T18:45:46.410Z,31.90
2023-02-14T18:50:48.601Z,31.40
2023-02-14T18:55:51.043Z,30.45
2023-02-14T19:00:54.576Z,29.73
2023-02-14T19:05:59.839Z,34.03
2023-02-14T19:11:02.572Z,34.10
2023-02-14T19:16:13.563Z,29.02
2023-02-14T19:21:24.492Z,32.67
2023-02-14T19:26:32.855Z,32.30
2023-02-14T19:31:37.567Z,28.45
2023-02-14T19:36:39.791Z,33.03
2023-02-14T19:41:42.491Z,35.78
2023-02-14T19:46:46.395Z,34.35
2023-02-14T19:51:51.353Z,31.97
2023-02-14T19:56:55.440Z,35.40
2023-02-14T20:01:58.484Z,35.83
2023-02-14T20:07:01.895Z,32.72
2023-02-14T20:12:04.812Z,31.55
2023-02-14T20:17:07.818Z,34.70
2023-02-14T20:22:11.184Z,34.97
2023-02-14T20:27:13.464Z,33.13
2023-02-14T20:32:16.297Z,35.15
2023-02-14T20:37:18.442Z,30.33
2023-02-14T20:42:20.567Z,32.33
2023-02-14T20:47:22.674Z,30.83
2023-02-14T20:52:27.029Z,37.28
2023-02-14T20:57:29.777Z,34.72
2023-02-14T21:02:31.937Z,38.20
2023-02-14T21:07:34.176Z,38.90
2023-02-14T21:12:38.231Z,34.20
2023-02-14T21:17:40.568Z,35.88
2023-02-14T21:22:42.695Z,34.38
2023-02-14T21:27:45.396Z,34.20
2023-02-14T21:32:47.454Z,42.00
2023-02-14T21:37:49.584Z,35.50
2023-02-14T21:42:51.723Z,39.13
2023-02-14T21:48:12.453Z,39.03
2023-02-14T21:53:14.591Z,36.60
2023-02-14T21:58:16.844Z,39.47
2023-02-14T22:03:18.978Z,33.20
2023-02-14T22:08:21.105Z,38.58
2023-02-14T22:13:23.679Z,34.00
2023-02-14T22:18:25.821Z,33.45
2023-02-14T22:23:31.289Z,32.77
2023-02-14T22:28:33.806Z,37.00
2023-02-14T22:33:37.821Z,36.67
2023-02-14T22:38:40.773Z,37.38
2023-02-14T22:43:43.833Z,42.38
2023-02-14T22:48:46.977Z,40.97
2023-02-14T22:53:51.169Z,46.13
2023-02-14T22:59:01.796Z,41.92
2023-02-14T23:04:05.015Z,38.67
2023-02-14T23:09:08.692Z,46.70
2023-02-14T23:14:33.816Z,42.47
2023-02-14T23:19:55.593Z,46.22
2023-02-14T23:25:01.903Z,46.25
2023-02-14T23:30:08.926Z,45.47
2023-02-14T23:35:11.351Z,44.35
2023-02-14T23:40:13.698Z,44.77
2023-02-14T23:45:34.523Z,45.60
2023-02-14T23:50:36.714Z,42.10
2023-02-14T23:55:38.784Z,42.38
